createdAt,value
2024-02-13T00:00:36.763Z,9.00
2024-02-13T00:03:39.448Z,8.77
2024-02-13T00:06:43.098Z,8.93
2024-02-13T00:09:45.757Z,9.02
2024-02-13T00:12:48.300Z,7.83
2024-02-13T00:15:51.238Z,8.87
2024-02-13T00:18:53.754Z,9.32
2024-02-13T00:21:57.067Z,8.93
2024-02-13T00:24:59.587Z,9.07
2024-02-13T00:28:02.122Z,8.03
2024-02-13T00:31:08.792Z,8.50
2024-02-13T00:34:11.545Z,9.00
2024-02-13T00:37:14.714Z,8.25
2024-02-13T00:40:17.071Z,8.18
2024-02-13T00:43:21.439Z,9.07
2024-02-13T00:46:24.063Z,8.57
2024-02-13T00:49:26.358Z,8.48
2024-02-13T00:52:29.836Z,7.30
2024-02-13T00:55:33.026Z,8.32
2024-02-13T00:58:38.540Z,7.23
2024-02-13T01:01:40.945Z,7.87
2024-02-13T01:04:43.656Z,7.15
2024-02-13T01:07:46.762Z,8.00
2024-02-13T01:10:49.046Z,7.05
2024-02-13T01:13:52.627Z,6.90
2024-02-13T01:16:55.178Z,8.53
2024-02-13T01:19:58.819Z,7.47
2024-02-13T01:23:01.489Z,7.20
2024-02-13T01:26:04.604Z,7.35
2024-02-13T01:29:07.264Z,7.63
2024-02-13T01:32:10.414Z,6.10
2024-02-13T01:35:13.176Z,6.78
2024-02-13T01:38:15.763Z,7.25
2024-02-13T01:41:18.512Z,7.53
2024-02-13T01:44:21.295Z,7.27
2024-02-13T01:47:24.437Z,7.03
2024-02-13T01:50:28.776Z,7.28
2024-02-13T01:53:32.588Z,7.07
2024-02-13T01:56:35.553Z,7.32
2024-02-13T01:59:40.385Z,7.37
2024-02-13T02:02:44.597Z,6.67
2024-02-13T02:05:47.570Z,6.68
2024-02-13T02:08:50.124Z,7.12
2024-02-13T02:11:55.545Z,6.50
2024-02-13T02:14:58.560Z,7.70
2024-02-13T02:18:01.261Z,7.30
2024-02-13T02:21:03.831Z,7.00
2024-02-13T02:24:07.790Z,6.47
2024-02-13T02:27:10.123Z,7.03
2024-02-13T02:30:12.798Z,7.57
2024-02-13T02:33:16.107Z,7.40
2024-02-13T02:36:18.936Z,5.57
2024-02-13T02:39:22.761Z,5.45
2024-02-13T02:42:25.371Z,6.60
2024-02-13T02:45:29.021Z,7.23
2024-02-13T02:48:31.467Z,8.80
2024-02-13T02:51:34.643Z,8.55
2024-02-13T02:54:37.890Z,7.78
2024-02-13T02:57:40.620Z,7.00
2024-02-13T03:00:45.195Z,7.87
2024-02-13T03:03:48.394Z,6.43
2024-02-13T03:06:51.067Z,5.90
2024-02-13T03:09:53.798Z,6.62
2024-02-13T03:12:56.831Z,6.60
2024-02-13T03:15:59.367Z,6.67
2024-02-13T03:19:04.174Z,6.13
2024-02-13T03:22:06.978Z,6.00
2024-02-13T03:25:10.410Z,6.15
2024-02-13T03:28:13.004Z,6.00
2024-02-13T03:31:15.928Z,7.00
2024-02-13T03:34:18.618Z,5.47
2024-02-13T03:41:20.153Z,5.95
2024-02-13T03:44:24.105Z,6.37
2024-02-13T03:47:26.714Z,6.67
2024-02-13T03:50:29.263Z,6.37
2024-02-13T03:53:35.430Z,6.97
2024-02-13T03:56:39.121Z,6.40
2024-02-13T03:59:41.706Z,6.80
2024-02-13T04:02:45.951Z,7.63
2024-02-13T04:05:51.082Z,6.77
2024-02-13T04:08:53.635Z,6.90
2024-02-13T04:11:58.751Z,7.20
2024-02-13T04:15:01.534Z,6.87
2024-02-13T04:18:04.218Z,10.97
2024-02-13T04:21:06.954Z,12.50
2024-02-13T04:24:09.527Z,10.38
2024-02-13T04:27:12.086Z,9.15
2024-02-13T04:30:14.986Z,7.40
2024-02-13T04:33:17.724Z,7.47
2024-02-13T04:36:20.438Z,7.30
2024-02-13T04:39:22.691Z,6.20
2024-02-13T04:42:35.767Z,7.37
2024-02-13T04:45:38.645Z,6.97
2024-02-13T04:48:41.350Z,6.33
2024-02-13T04:51:44.764Z,6.30
2024-02-13T04:54:47.107Z,5.82
2024-02-13T04:57:49.962Z,6.95
2024-02-13T05:01:11.750Z,6.75
2024-02-13T05:04:17.643Z,6.17
2024-02-13T05:07:24.879Z,6.27
2024-02-13T05:10:27.467Z,6.40
2024-02-13T05:13:32.682Z,6.68
2024-02-13T05:16:35.370Z,6.97
2024-02-13T05:19:38.017Z,7.07
2024-02-13T05:22:40.533Z,6.57
2024-02-13T05:25:42.916Z,6.45
2024-02-13T05:28:45.845Z,6.72
2024-02-13T05:31:48.409Z,10.30
2024-02-13T05:34:50.654Z,12.63
2024-02-13T05:37:53.332Z,10.70
2024-02-13T05:40:56.555Z,11.25
2024-02-13T05:43:59.160Z,9.80
2024-02-13T05:47:03.968Z,10.65
2024-02-13T05:50:08.980Z,9.30
2024-02-13T05:53:11.741Z,8.80
2024-02-13T05:56:23.344Z,8.13
2024-02-13T05:59:33.122Z,7.35
2024-02-13T06:02:35.857Z,7.22
2024-02-13T06:05:38.649Z,7.30
2024-02-13T06:08:40.966Z,7.50
2024-02-13T06:11:43.921Z,7.20
2024-02-13T06:14:48.440Z,7.40
2024-02-13T06:17:51.279Z,6.30
2024-02-13T06:20:55.353Z,7.27
2024-02-13T06:23:57.851Z,6.73
2024-02-13T06:27:00.483Z,6.97
2024-02-13T06:33:51.685Z,7.72
2024-02-13T06:36:55.022Z,8.00
2024-02-13T06:39:57.305Z,7.20
2024-02-13T06:43:00.186Z,7.43
2024-02-13T06:46:03.619Z,8.18
2024-02-13T06:49:14.397Z,7.35
2024-02-13T06:52:19.673Z,7.23
2024-02-13T06:55:22.153Z,7.17
2024-02-13T06:58:24.589Z,7.18
2024-02-13T07:05:24.805Z,8.00
2024-02-13T07:08:28.358Z,7.13
2024-02-13T07:11:31.541Z,8.00
2024-02-13T07:14:34.569Z,7.22
2024-02-13T07:17:48.036Z,7.30
2024-02-13T07:21:03.327Z,6.87
2024-02-13T07:24:10.579Z,6.83
2024-02-13T07:27:12.958Z,6.70
2024-02-13T07:30:16.473Z,5.90
2024-02-13T07:33:18.746Z,5.53
2024-02-13T07:36:21.307Z,4.80
2024-02-13T07:39:24.053Z,6.40
2024-02-13T07:42:29.224Z,5.27
2024-02-13T07:45:31.537Z,9.93
2024-02-13T07:48:35.223Z,8.43
2024-02-13T07:51:39.716Z,8.90
2024-02-13T07:54:42.231Z,7.87
2024-02-13T07:57:44.727Z,6.57
2024-02-13T08:00:47.525Z,3.95
2024-02-13T08:03:50.207Z,2.97
2024-02-13T08:06:52.852Z,3.65
2024-02-13T08:09:55.888Z,4.50
2024-02-13T08:12:58.918Z,3.97
2024-02-13T08:16:01.202Z,3.20
2024-02-13T08:19:04.025Z,4.15
2024-02-13T08:22:06.564Z,4.20
2024-02-13T08:25:09.666Z,3.27
2024-02-13T08:28:14.086Z,2.97
2024-02-13T08:31:16.243Z,3.72
2024-02-13T08:34:19.118Z,3.12
2024-02-13T08:37:23.583Z,2.40
2024-02-13T08:40:25.860Z,2.23
2024-02-13T08:43:28.067Z,1.57
2024-02-13T08:46:30.812Z,2.83
2024-02-13T08:49:33.476Z,3.08
2024-02-13T08:52:36.295Z,2.85
2024-02-13T08:55:38.556Z,3.40
2024-02-13T08:58:40.904Z,3.50
2024-02-13T09:01:43.512Z,2.75
2024-02-13T09:04:51.663Z,2.28
2024-02-13T09:07:54.401Z,2.83
2024-02-13T09:10:56.711Z,2.50
2024-02-13T09:13:58.893Z,1.60
2024-02-13T09:17:01.831Z,2.17
2024-02-13T09:20:07.190Z,2.67
2024-02-13T09:23:10.440Z,1.00
2024-02-13T09:26:13.136Z,2.03
2024-02-13T09:29:15.715Z,1.63
2024-02-13T09:32:18.309Z,1.58
2024-02-13T09:35:20.817Z,1.15
2024-02-13T09:38:24.010Z,1.23
2024-02-13T09:41:26.577Z,1.00
2024-02-13T09:44:29.148Z,1.63
2024-02-13T09:47:35.499Z,1.40
2024-02-13T09:50:42.742Z,0.80
2024-02-13T09:53:47.260Z,0.82
2024-02-13T09:56:52.526Z,0.90
2024-02-13T09:59:58.273Z,1.37
2024-02-13T10:03:03.713Z,1.20
2024-02-13T10:06:07.865Z,1.12
2024-02-13T10:09:13.176Z,0.93
2024-02-13T10:12:16.152Z,1.10
2024-02-13T10:15:18.449Z,0.80
2024-02-13T10:18:21.821Z,1.70
2024-02-13T10:21:28.732Z,1.27
2024-02-13T10:24:31.690Z,2.00
2024-02-13T10:27:34.412Z,1.40
2024-02-13T10:30:39.205Z,0.93
2024-02-13T10:33:43.107Z,1.73
2024-02-13T10:36:46.698Z,1.40
2024-02-13T10:39:52.913Z,1.58
2024-02-13T10:42:56.424Z,1.73
2024-02-13T10:46:00.126Z,1.40
2024-02-13T10:49:21.116Z,0.95
2024-02-13T10:52:24.374Z,1.15
2024-02-13T10:55:27.918Z,1.10
2024-02-13T10:58:33.332Z,1.57
2024-02-13T11:01:36.586Z,1.40
2024-02-13T11:04:44.685Z,1.95
2024-02-13T11:07:47.685Z,0.93
2024-02-13T11:10:51.351Z,1.48
2024-02-13T11:13:53.783Z,1.13
2024-02-13T11:17:02.108Z,0.83
2024-02-13T11:20:10.728Z,1.70
2024-02-13T11:23:16.687Z,2.15
2024-02-13T11:26:19.756Z,1.62
2024-02-13T11:29:23.644Z,1.63
2024-02-13T11:32:37.695Z,2.53
2024-02-13T11:35:54.617Z,1.75
2024-02-13T11:38:59.621Z,2.10
2024-02-13T11:42:03.046Z,1.40
2024-02-13T11:45:07.653Z,1.23
2024-02-13T11:48:16.457Z,2.40
2024-02-13T11:51:18.957Z,2.55
2024-02-13T11:54:21.611Z,1.33
2024-02-13T11:57:26.578Z,1.40
2024-02-13T12:00:29.114Z,2.00
2024-02-13T12:03:34.376Z,1.50
2024-02-13T12:06:36.927Z,1.62
2024-02-13T12:09:44.065Z,3.15
2024-02-13T12:12:46.788Z,1.23
2024-02-13T12:15:50.010Z,2.25
2024-02-13T12:18:53.592Z,2.33
2024-02-13T12:21:56.813Z,1.40
2024-02-13T12:25:08.132Z,2.33
2024-02-13T12:28:13.861Z,1.65
2024-02-13T12:31:17.025Z,1.75
2024-02-13T12:34:20.439Z,1.40
2024-02-13T12:37:22.826Z,1.70
2024-02-13T12:40:27.899Z,1.40
2024-02-13T12:43:30.675Z,1.70
2024-02-13T12:46:38.535Z,1.25
2024-02-13T12:49:45.083Z,1.00
2024-02-13T12:52:50.713Z,0.93
2024-02-13T12:55:54.114Z,1.60
2024-02-13T12:58:56.640Z,1.40
2024-02-13T13:02:00.704Z,1.37
2024-02-13T13:05:04.270Z,1.57
2024-02-13T13:08:07.091Z,0.73
2024-02-13T13:11:12.106Z,1.33
2024-02-13T13:14:17.518Z,1.05
2024-02-13T13:17:23.124Z,1.27
2024-02-13T13:20:25.794Z,1.20
2024-02-13T13:23:28.427Z,1.42
2024-02-13T13:26:34.562Z,1.00
2024-02-13T13:29:41.559Z,0.75
2024-02-13T13:32:45.706Z,0.98
2024-02-13T13:35:48.799Z,0.90
2024-02-13T13:38:51.160Z,1.10
2024-02-13T13:41:55.785Z,1.08
2024-02-13T13:44:58.073Z,1.00
2024-02-13T13:48:15.208Z,1.20
2024-02-13T13:51:17.664Z,0.90
2024-02-13T13:54:21.526Z,1.02
2024-02-13T13:57:24.737Z,0.90
2024-02-13T14:00:31.227Z,0.80
2024-02-13T14:03:33.533Z,0.60
2024-02-13T14:06:36.159Z,0.73
2024-02-13T14:09:38.928Z,0.70
2024-02-13T14:12:44.649Z,0.70
2024-02-13T14:15:46.902Z,0.90
2024-02-13T14:18:49.764Z,0.90
2024-02-13T14:21:52.116Z,0.97
2024-02-13T14:24:55.186Z,0.90
2024-02-13T14:28:01.032Z,1.20
2024-02-13T14:31:03.277Z,0.80
2024-02-13T14:34:07.250Z,0.97
2024-02-13T14:37:11.320Z,1.00
2024-02-13T14:40:16.934Z,1.10
2024-02-13T14:43:19.405Z,0.85
2024-02-13T14:46:21.577Z,0.93
2024-02-13T14:49:24.975Z,1.03
2024-02-13T14:52:27.669Z,0.97
2024-02-13T14:55:30.993Z,1.75
2024-02-13T14:58:39.189Z,1.08
2024-02-13T15:01:43.117Z,1.00
2024-02-13T15:04:46.037Z,1.03
2024-02-13T15:07:53.683Z,1.10
2024-02-13T15:10:56.055Z,1.58
2024-02-13T15:13:59.797Z,0.93
2024-02-13T15:17:02.031Z,1.20
2024-02-13T15:20:06.556Z,0.90
2024-02-13T15:23:27.942Z,1.50
2024-02-13T15:26:32.200Z,1.08
2024-02-13T15:29:34.568Z,1.30
2024-02-13T15:32:38.190Z,1.00
2024-02-13T15:35:43.321Z,1.50
2024-02-13T15:39:04.444Z,1.50
2024-02-13T15:42:25.266Z,1.23
2024-02-13T15:45:46.683Z,1.60
2024-02-13T15:48:49.310Z,1.27
2024-02-13T15:51:55.512Z,1.40
2024-02-13T15:59:09.540Z,1.00
2024-02-13T16:02:12.106Z,1.35
2024-02-13T16:05:18.681Z,1.45
2024-02-13T16:08:22.378Z,1.60
2024-02-13T16:11:24.814Z,2.07
2024-02-13T16:14:28.543Z,3.33
2024-02-13T16:17:31.080Z,2.17
2024-02-13T16:20:33.430Z,2.30
2024-02-13T16:23:35.717Z,2.10
2024-02-13T16:26:39.246Z,1.80
2024-02-13T16:29:41.948Z,2.35
2024-02-13T16:32:44.534Z,1.52
2024-02-13T16:35:47.241Z,1.73
2024-02-13T16:38:49.663Z,1.20
2024-02-13T16:41:55.158Z,1.50
2024-02-13T16:44:58.052Z,1.87
2024-02-13T16:48:00.765Z,2.40
2024-02-13T16:51:03.439Z,2.30
2024-02-13T16:54:08.487Z,2.57
2024-02-13T16:57:14.652Z,2.87
2024-02-13T17:00:17.943Z,2.75
2024-02-13T17:03:20.913Z,3.20
2024-02-13T17:06:23.416Z,2.97
2024-02-13T17:09:25.774Z,3.80
2024-02-13T17:12:28.265Z,4.20
2024-02-13T17:15:31.622Z,5.22
2024-02-13T17:18:34.568Z,4.30
2024-02-13T17:21:36.958Z,5.15
2024-02-13T17:24:42.522Z,3.30
2024-02-13T17:27:45.273Z,2.83
2024-02-13T17:30:47.548Z,3.45
2024-02-13T17:33:49.924Z,2.72
2024-02-13T17:36:52.397Z,2.67
2024-02-13T17:39:54.853Z,2.57
2024-02-13T17:42:57.367Z,2.70
2024-02-13T17:46:00.846Z,2.90
2024-02-13T17:49:04.791Z,2.90
2024-02-13T17:52:07.616Z,2.70
2024-02-13T17:55:10.976Z,3.63
2024-02-13T17:58:14.838Z,3.87
2024-02-13T18:01:17.268Z,3.10
2024-02-13T18:04:21.429Z,3.53
2024-02-13T18:07:24.798Z,3.65
2024-02-13T18:10:27.794Z,3.63
2024-02-13T18:13:31.036Z,3.17
2024-02-13T18:16:35.351Z,3.20
2024-02-13T18:19:38.055Z,3.15
2024-02-13T18:22:41.323Z,3.45
2024-02-13T18:25:45.158Z,3.43
2024-02-13T18:28:47.694Z,4.20
2024-02-13T18:31:50.007Z,5.10
2024-02-13T18:34:54.551Z,4.22
2024-02-13T18:37:57.230Z,4.30
2024-02-13T18:41:00.262Z,4.43
2024-02-13T18:44:02.842Z,3.73
2024-02-13T18:47:11.101Z,4.60
2024-02-13T18:50:13.407Z,6.05
2024-02-13T18:53:15.890Z,6.93
2024-02-13T18:56:18.632Z,5.07
2024-02-13T18:59:21.356Z,5.63
2024-02-13T19:02:24.221Z,5.80
2024-02-13T19:05:26.658Z,5.68
2024-02-13T19:08:29.162Z,6.53
2024-02-13T19:11:31.693Z,5.97
2024-02-13T19:14:34.136Z,7.03
2024-02-13T19:17:37.062Z,6.00
2024-02-13T19:20:39.701Z,6.87
2024-02-13T19:23:42.179Z,6.50
2024-02-13T19:26:45.203Z,7.33
2024-02-13T19:29:48.640Z,6.97
2024-02-13T19:32:52.975Z,6.40
2024-02-13T19:35:56.010Z,7.25
2024-02-13T19:39:03.375Z,8.02
2024-02-13T19:42:05.939Z,9.80
2024-02-13T19:45:08.923Z,6.33
2024-02-13T19:48:11.478Z,9.38
2024-02-13T19:51:14.611Z,7.53
2024-02-13T19:54:21.557Z,7.22
2024-02-13T19:57:26.529Z,7.57
2024-02-13T20:00:28.765Z,8.30
2024-02-13T20:03:31.387Z,7.15
2024-02-13T20:06:35.317Z,6.60
2024-02-13T20:09:37.624Z,7.00
2024-02-13T20:12:41.132Z,7.10
2024-02-13T20:15:44.920Z,9.37
2024-02-13T20:18:47.797Z,8.55
2024-02-13T20:21:50.578Z,8.07
2024-02-13T20:24:54.624Z,8.77
2024-02-13T20:27:58.686Z,7.60
2024-02-13T20:31:01.248Z,8.93
2024-02-13T20:34:04.284Z,8.10
2024-02-13T20:37:07.946Z,9.57
2024-02-13T20:40:13.242Z,10.63
2024-02-13T20:43:18.078Z,9.13
2024-02-13T20:46:21.782Z,9.23
2024-02-13T20:49:25.661Z,8.20
2024-02-13T20:52:29.763Z,8.60
2024-02-13T20:55:32.335Z,8.50
2024-02-13T20:58:35.161Z,8.67
2024-02-13T21:01:39.751Z,7.77
2024-02-13T21:04:46.971Z,8.70
2024-02-13T21:07:50.513Z,8.82
2024-02-13T21:10:52.878Z,8.25
2024-02-13T21:13:57.189Z,8.53
2024-02-13T21:17:03.220Z,8.83
2024-02-13T21:20:06.654Z,9.13
2024-02-13T21:23:29.091Z,10.07
2024-02-13T21:26:31.848Z,11.80
2024-02-13T21:29:35.611Z,10.07
2024-02-13T21:32:39.122Z,11.53
2024-02-13T21:35:41.495Z,9.98
2024-02-13T21:38:44.709Z,10.65
2024-02-13T21:41:46.961Z,9.45
2024-02-13T21:44:49.481Z,8.80
2024-02-13T21:47:52.173Z,8.97
2024-02-13T21:50:55.966Z,9.07
2024-02-13T21:53:58.927Z,8.63
2024-02-13T21:57:01.638Z,8.48
2024-02-13T22:00:08.049Z,7.87
2024-02-13T22:03:10.544Z,8.30
2024-02-13T22:06:15.237Z,7.65
2024-02-13T22:09:18.331Z,7.30
2024-02-13T22:12:21.014Z,6.57
2024-02-13T22:15:25.320Z,6.67
2024-02-13T22:22:38.277Z,5.50
2024-02-13T22:25:41.820Z,4.93
2024-02-13T22:28:44.192Z,4.55
2024-02-13T22:31:46.705Z,5.03
2024-02-13T22:34:49.263Z,4.77
2024-02-13T22:37:51.541Z,5.15
2024-02-13T22:40:54.072Z,4.78
2024-02-13T22:43:56.306Z,4.53
2024-02-13T22:46:58.920Z,4.40
2024-02-13T22:50:01.582Z,4.07
2024-02-13T22:53:04.732Z,4.35
2024-02-13T22:56:08.598Z,4.40
2024-02-13T22:59:10.932Z,3.85
2024-02-13T23:02:14.434Z,3.60
2024-02-13T23:05:16.908Z,2.97
2024-02-13T23:08:19.367Z,3.70
2024-02-13T23:11:22.958Z,3.15
2024-02-13T23:14:27.422Z,3.72
2024-02-13T23:17:33.007Z,3.70
2024-02-13T23:20:37.123Z,4.63
2024-02-13T23:23:42.491Z,5.10
2024-02-13T23:26:45.095Z,5.47
2024-02-13T23:29:47.454Z,5.47
2024-02-13T23:32:50.456Z,6.30
2024-02-13T23:35:54.476Z,5.70
2024-02-13T23:38:57.573Z,6.20
2024-02-13T23:42:00.265Z,5.60
2024-02-13T23:45:02.814Z,5.50
2024-02-13T23:48:05.699Z,5.00
2024-02-13T23:51:08.351Z,6.20
2024-02-13T23:54:10.764Z,5.45
2024-02-13T23:57:13.458Z,6.43
